Time;durP1;ratioP1;P1;durP2;ratioP2;P2;SDS_P1;SDS_P2;PMS_P1;PMS_P2;Temp;Humidity;BMP_temperature;BMP_pressure;BME280_temperature;BME280_humidity;BME280_pressure;Samples;Min_cycle;Max_cycle;Signal;HPM_P1;HPM_P2
2023/04/16 00:01:48;;;;;;;0.55;0.55;;;;;;;;;;4966053;28;20049;-39
2023/04/16 00:04:13;;;;;;;1.27;0.50;;;;;;;;;;4966332;28;20087;-39
2023/04/16 00:06:39;;;;;;;0.68;0.50;;;;;;;;;;4970450;28;20510;-39
2023/04/16 00:09:04;;;;;;;1.10;0.65;;;;;;;;;;4966618;28;20507;-40
2023/04/16 00:11:29;;;;;;;0.90;0.57;;;;;;;;;;4967517;28;20085;-40
2023/04/16 00:13:55;;;;;;;1.05;0.70;;;;;;;;;;4963560;28;20477;-39
2023/04/16 00:16:20;;;;;;;0.82;0.82;;;;;;;;;;4969014;28;20051;-39
2023/04/16 00:18:46;;;;;;;0.45;0.45;;;;;;;;;;4970438;28;20050;-39
2023/04/16 00:21:11;;;;;;;0.68;0.60;;;;;;;;;;4966750;28;20480;-39
2023/04/16 00:23:37;;;;;;;0.60;0.60;;;;;;;;;;4969291;28;20030;-39
2023/04/16 00:26:02;;;;;;;1.50;0.70;;;;;;;;;;4965989;28;20039;-39
2023/04/16 00:28:28;;;;;;;0.85;0.60;;;;;;;;;;4964931;28;20015;-39
2023/04/16 00:30:54;;;;;;;0.95;0.82;;;;;;;;;;4967133;28;20515;-39
2023/04/16 00:33:19;;;;;;;1.05;0.57;;;;;;;;;;4963210;28;20059;-39
2023/04/16 00:35:46;;;;;;;0.88;0.88;;;;;;;;;;4968920;28;20105;-39
2023/04/16 00:38:12;;;;;;;0.57;0.57;;;;;;;;;;4970122;28;20030;-39
2023/04/16 00:40:37;;;;;;;0.70;0.70;;;;;;;;;;4970247;28;20130;-39
2023/04/16 00:43:03;;;;;;;0.98;0.88;;;;;;;;;;4964047;28;20085;-39
2023/04/16 00:45:28;;;;;;;1.02;0.70;;;;;;;;;;4968836;28;20063;-39
2023/04/16 00:47:55;;;;;;;1.40;0.65;;;;;;;;;;4969742;28;20897;-39
2023/04/16 00:50:20;;;;;;;0.80;0.80;;;;;;;;;;4966696;28;20081;-39
2023/04/16 00:52:47;;;;;;;0.70;0.70;;;;;;;;;;4966392;28;20472;-39
2023/04/16 00:55:14;;;;;;;4.03;1.00;;;;;;;;;;4978756;28;20101;-39
2023/04/16 00:57:40;;;;;;;4.15;0.90;;;;;;;;;;4966908;28;20038;-39
2023/04/16 01:00:06;;;;;;;1.10;0.85;;;;;;;;;;4969849;28;20050;-38
2023/04/16 01:02:32;;;;;;;1.35;0.95;;;;;;;;;;4966462;28;20042;-39
2023/04/16 01:05:00;;;;;;;1.08;0.90;;;;;;;;;;4969791;28;20027;-39
2023/04/16 01:07:25;;;;;;;2.17;1.00;;;;;;;;;;4964892;28;20516;-39
2023/04/16 01:09:50;;;;;;;0.70;0.70;;;;;;;;;;4967620;28;20109;-39
2023/04/16 01:12:16;;;;;;;2.15;1.40;;;;;;;;;;4965565;28;20047;-39
2023/04/16 01:14:41;;;;;;;0.68;0.68;;;;;;;;;;4966569;28;20511;-39
2023/04/16 01:17:07;;;;;;;0.82;0.75;;;;;;;;;;4969237;28;20047;-39
2023/04/16 01:19:35;;;;;;;1.05;0.80;;;;;;;;;;4970078;28;20034;-39
2023/04/16 01:22:00;;;;;;;0.60;0.60;;;;;;;;;;4967582;28;20074;-39
2023/04/16 01:24:26;;;;;;;0.75;0.70;;;;;;;;;;4968154;28;20054;-39
2023/04/16 01:26:52;;;;;;;1.10;0.90;;;;;;;;;;4969655;28;20538;-39
2023/04/16 01:29:17;;;;;;;0.70;0.60;;;;;;;;;;4966332;28;20030;-39
2023/04/16 01:31:42;;;;;;;0.57;0.57;;;;;;;;;;4968710;28;20043;-39
2023/04/16 01:34:08;;;;;;;1.65;0.90;;;;;;;;;;4969612;28;20126;-39
2023/04/16 01:36:33;;;;;;;2.13;0.70;;;;;;;;;;4965197;28;20070;-39
2023/04/16 01:38:58;;;;;;;0.80;0.80;;;;;;;;;;4966307;28;20240;-39
2023/04/16 01:41:24;;;;;;;1.42;0.90;;;;;;;;;;4963827;28;20047;-39
2023/04/16 01:43:49;;;;;;;1.17;0.98;;;;;;;;;;4968840;28;20058;-38
2023/04/16 01:46:29;;;;;;;2.00;0.90;;;;;;;;;;4970144;28;20043;-39
2023/04/16 01:48:56;;;;;;;1.52;1.10;;;;;;;;;;4965189;28;20043;-39
2023/04/16 01:51:22;;;;;;;1.27;0.85;;;;;;;;;;4968490;28;20062;-39
2023/04/16 01:53:48;;;;;;;1.00;0.82;;;;;;;;;;4965752;28;20066;-39
2023/04/16 01:56:13;;;;;;;2.45;1.40;;;;;;;;;;4967465;28;20039;-39
2023/04/16 01:58:40;;;;;;;0.65;0.65;;;;;;;;;;4966883;28;20443;-39
2023/04/16 02:01:05;;;;;;;1.98;1.08;;;;;;;;;;4960652;28;20043;-39
2023/04/16 02:03:31;;;;;;;0.80;0.80;;;;;;;;;;4964477;28;20081;-39
2023/04/16 02:05:56;;;;;;;4.45;1.02;;;;;;;;;;4968006;28;20526;-39
2023/04/16 02:08:22;;;;;;;1.17;1.10;;;;;;;;;;4969141;28;20023;-39
2023/04/16 02:10:48;;;;;;;1.02;0.95;;;;;;;;;;4968333;28;20388;-39
2023/04/16 02:13:15;;;;;;;1.85;1.05;;;;;;;;;;4966885;28;20057;-39
2023/04/16 02:15:47;;;;;;;1.35;1.00;;;;;;;;;;4960275;28;20055;-39
2023/04/16 02:18:13;;;;;;;1.10;1.00;;;;;;;;;;4948641;28;20114;-39
2023/04/16 02:20:43;;;;;;;1.00;1.00;;;;;;;;;;4948220;28;20050;-44
2023/04/16 02:23:09;;;;;;;2.13;1.10;;;;;;;;;;4967278;28;20424;-39
2023/04/16 02:25:42;;;;;;;1.00;0.90;;;;;;;;;;4964726;28;20085;-47
2023/04/16 02:28:09;;;;;;;1.13;0.93;;;;;;;;;;4965437;28;20596;-39
2023/04/16 02:30:36;;;;;;;1.00;1.00;;;;;;;;;;4966710;28;20038;-39
2023/04/16 02:33:04;;;;;;;2.08;1.00;;;;;;;;;;4967946;28;20637;-39
2023/04/16 02:35:30;;;;;;;1.10;1.00;;;;;;;;;;4962877;28;20043;-40
2023/04/16 02:37:55;;;;;;;1.67;1.00;;;;;;;;;;4968409;28;20030;-39
2023/04/16 02:40:21;;;;;;;2.72;0.90;;;;;;;;;;4964100;28;20046;-39
2023/04/16 02:42:46;;;;;;;2.13;0.95;;;;;;;;;;4963109;28;20046;-39
2023/04/16 02:45:12;;;;;;;3.08;1.15;;;;;;;;;;4965819;28;20037;-39
2023/04/16 02:47:37;;;;;;;0.90;0.90;;;;;;;;;;4968227;28;20031;-39
2023/04/16 02:50:03;;;;;;;1.60;1.00;;;;;;;;;;4969877;28;20042;-39
2023/04/16 02:52:28;;;;;;;0.93;0.93;;;;;;;;;;4966788;28;20027;-39
2023/04/16 02:54:54;;;;;;;2.10;0.82;;;;;;;;;;4966969;28;20031;-39
2023/04/16 02:57:19;;;;;;;2.08;1.23;;;;;;;;;;4961586;28;20043;-39
2023/04/16 02:59:45;;;;;;;1.10;0.90;;;;;;;;;;4966706;28;20035;-39
2023/04/16 03:02:10;;;;;;;0.80;0.80;;;;;;;;;;4966593;28;20038;-39
2023/04/16 03:04:36;;;;;;;2.47;1.08;;;;;;;;;;4963432;28;20022;-39
2023/04/16 03:07:01;;;;;;;3.75;1.00;;;;;;;;;;4968305;28;20057;-39
2023/04/16 03:09:26;;;;;;;2.25;1.08;;;;;;;;;;4963557;28;20026;-39
2023/04/16 03:11:52;;;;;;;3.60;1.20;;;;;;;;;;4964325;28;20085;-39
2023/04/16 03:14:17;;;;;;;1.23;1.10;;;;;;;;;;4963973;28;20034;-39
2023/04/16 03:16:43;;;;;;;1.65;1.00;;;;;;;;;;4966720;28;20047;-39
2023/04/16 03:19:08;;;;;;;4.38;1.00;;;;;;;;;;4966415;28;20023;-39
2023/04/16 03:21:33;;;;;;;3.03;1.10;;;;;;;;;;4967731;28;20043;-39
2023/04/16 03:23:59;;;;;;;3.22;1.10;;;;;;;;;;4965788;28;20483;-39
2023/04/16 03:26:24;;;;;;;1.98;0.95;;;;;;;;;;4963852;28;20139;-39
2023/04/16 03:28:49;;;;;;;1.73;1.63;;;;;;;;;;4965139;28;20476;-39
2023/04/16 03:31:15;;;;;;;2.60;1.02;;;;;;;;;;4967586;28;20043;-39
2023/04/16 03:33:41;;;;;;;2.55;1.35;;;;;;;;;;4970392;28;20027;-39
2023/04/16 03:36:07;;;;;;;2.72;1.15;;;;;;;;;;4969214;28;20066;-39
2023/04/16 03:38:32;;;;;;;2.55;1.55;;;;;;;;;;4969184;28;20089;-40
2023/04/16 03:40:57;;;;;;;2.50;1.40;;;;;;;;;;4967743;28;20101;-39
2023/04/16 03:43:23;;;;;;;1.60;1.50;;;;;;;;;;4964623;28;20019;-39
2023/04/16 03:45:48;;;;;;;2.60;1.55;;;;;;;;;;4965366;28;20055;-39
2023/04/16 03:48:14;;;;;;;1.40;1.25;;;;;;;;;;4970867;28;20025;-39
2023/04/16 03:50:44;;;;;;;3.42;1.40;;;;;;;;;;4965445;28;20046;-39
2023/04/16 03:53:09;;;;;;;2.03;1.40;;;;;;;;;;4963118;28;20031;-39
2023/04/16 03:55:35;;;;;;;1.60;1.50;;;;;;;;;;4964356;28;20049;-39
2023/04/16 03:58:02;;;;;;;4.72;1.55;;;;;;;;;;4967536;28;20058;-39
2023/04/16 04:00:28;;;;;;;1.75;1.60;;;;;;;;;;4971611;28;20101;-39
2023/04/16 04:02:53;;;;;;;3.75;1.63;;;;;;;;;;4970460;28;20387;-39
2023/04/16 04:05:18;;;;;;;2.42;1.67;;;;;;;;;;4965808;28;20053;-39
2023/04/16 04:07:44;;;;;;;3.92;1.70;;;;;;;;;;4969498;28;20539;-39
2023/04/16 04:10:09;;;;;;;2.25;1.90;;;;;;;;;;4969738;28;20039;-39
2023/04/16 04:12:35;;;;;;;3.28;1.50;;;;;;;;;;4967987;28;20415;-39
2023/04/16 04:15:00;;;;;;;2.15;1.52;;;;;;;;;;4966574;28;20039;-39
2023/04/16 04:17:26;;;;;;;3.25;1.98;;;;;;;;;;4971209;28;20530;-39
2023/04/16 04:19:52;;;;;;;2.53;1.52;;;;;;;;;;4964825;28;20031;-39
2023/04/16 04:22:18;;;;;;;2.75;1.88;;;;;;;;;;4969545;28;20117;-39
2023/04/16 04:24:43;;;;;;;2.28;1.50;;;;;;;;;;4968235;28;20417;-40
2023/04/16 04:27:09;;;;;;;2.50;1.73;;;;;;;;;;4968402;28;20081;-39
2023/04/16 04:29:34;;;;;;;4.65;1.83;;;;;;;;;;4970418;28;20502;-39
2023/04/16 04:32:00;;;;;;;1.80;1.60;;;;;;;;;;4967459;28;20462;-39
2023/04/16 04:34:25;;;;;;;1.63;1.50;;;;;;;;;;4970520;28;20035;-40
2023/04/16 04:36:51;;;;;;;1.85;1.52;;;;;;;;;;4970537;28;20141;-39
2023/04/16 04:39:16;;;;;;;2.70;1.85;;;;;;;;;;4968235;28;20383;-39
2023/04/16 04:41:42;;;;;;;1.45;1.35;;;;;;;;;;4968659;28;20093;-39
2023/04/16 04:44:07;;;;;;;5.43;1.60;;;;;;;;;;4970548;28;20118;-39
2023/04/16 04:46:32;;;;;;;3.22;1.13;;;;;;;;;;4969108;28;20495;-39
2023/04/16 04:48:58;;;;;;;2.05;1.65;;;;;;;;;;4969488;28;20066;-39
2023/04/16 04:51:23;;;;;;;2.67;1.60;;;;;;;;;;4969077;28;20042;-39
2023/04/16 04:53:48;;;;;;;4.30;1.77;;;;;;;;;;4968463;28;20054;-39
2023/04/16 04:56:14;;;;;;;2.72;1.80;;;;;;;;;;4962254;28;20045;-39
2023/04/16 04:58:40;;;;;;;2.53;1.60;;;;;;;;;;4968240;28;20053;-39
2023/04/16 05:01:05;;;;;;;5.28;2.03;;;;;;;;;;4963603;28;20058;-39
2023/04/16 05:03:31;;;;;;;3.30;1.55;;;;;;;;;;4964376;28;20471;-40
2023/04/16 05:05:56;;;;;;;2.33;1.70;;;;;;;;;;4970253;28;20047;-39
2023/04/16 05:08:21;;;;;;;1.90;1.67;;;;;;;;;;4971425;28;20106;-40
2023/04/16 05:10:47;;;;;;;3.17;1.83;;;;;;;;;;4967418;28;20590;-39
2023/04/16 05:13:12;;;;;;;2.70;1.80;;;;;;;;;;4966990;28;20031;-39
2023/04/16 05:15:38;;;;;;;3.00;2.05;;;;;;;;;;4968253;28;20396;-39
2023/04/16 05:18:03;;;;;;;5.22;2.00;;;;;;;;;;4971104;28;20027;-39
2023/04/16 05:20:28;;;;;;;3.90;2.20;;;;;;;;;;4971435;28;20528;-39
2023/04/16 05:22:54;;;;;;;2.58;1.88;;;;;;;;;;4962501;28;20027;-39
2023/04/16 05:25:20;;;;;;;2.83;1.90;;;;;;;;;;4965976;28;20093;-39
2023/04/16 05:27:45;;;;;;;3.15;1.70;;;;;;;;;;4966939;28;20114;-40
2023/04/16 05:30:11;;;;;;;3.92;2.20;;;;;;;;;;4965915;28;20026;-39
2023/04/16 05:32:38;;;;;;;1.95;1.85;;;;;;;;;;4967813;28;20027;-39
2023/04/16 05:35:04;;;;;;;4.38;1.88;;;;;;;;;;4969332;28;20035;-39
2023/04/16 05:37:29;;;;;;;17.40;1.92;;;;;;;;;;4970285;28;20109;-39
2023/04/16 05:39:55;;;;;;;3.97;2.20;;;;;;;;;;4968913;28;20038;-40
2023/04/16 05:42:20;;;;;;;2.17;1.98;;;;;;;;;;4969372;28;20035;-40
2023/04/16 05:44:45;;;;;;;4.53;2.10;;;;;;;;;;4970010;28;20065;-39
2023/04/16 05:47:11;;;;;;;2.40;1.95;;;;;;;;;;4967880;28;20398;-38
2023/04/16 05:49:36;;;;;;;4.90;2.08;;;;;;;;;;4965990;28;20033;-40
2023/04/16 05:52:03;;;;;;;3.20;2.20;;;;;;;;;;4967513;28;20051;-39
2023/04/16 05:54:28;;;;;;;2.45;2.25;;;;;;;;;;4968028;28;20085;-39
2023/04/16 05:56:53;;;;;;;4.30;2.28;;;;;;;;;;4966188;28;20492;-39
2023/04/16 05:59:19;;;;;;;4.03;2.42;;;;;;;;;;4966356;28;20038;-39
2023/04/16 06:01:44;;;;;;;3.38;2.13;;;;;;;;;;4966560;28;20030;-40
2023/04/16 06:04:10;;;;;;;5.05;2.40;;;;;;;;;;4969243;28;20030;-39
2023/04/16 06:06:36;;;;;;;3.00;2.25;;;;;;;;;;4966084;28;20042;-39
2023/04/16 06:09:02;;;;;;;4.97;1.83;;;;;;;;;;4961838;28;20058;-39
2023/04/16 06:11:29;;;;;;;2.97;2.40;;;;;;;;;;4964429;28;20031;-39
2023/04/16 06:13:55;;;;;;;2.33;1.92;;;;;;;;;;4965767;28;20060;-39
2023/04/16 06:16:20;;;;;;;2.65;2.45;;;;;;;;;;4969235;28;20105;-40
2023/04/16 06:18:45;;;;;;;3.50;2.28;;;;;;;;;;4967303;28;20023;-39
2023/04/16 06:21:11;;;;;;;2.60;2.40;;;;;;;;;;4967238;28;20745;-39
2023/04/16 06:23:36;;;;;;;2.40;2.22;;;;;;;;;;4964968;28;20031;-40
2023/04/16 06:26:02;;;;;;;3.35;2.60;;;;;;;;;;4967962;28;20070;-39
2023/04/16 06:28:27;;;;;;;3.38;2.58;;;;;;;;;;4964762;28;20103;-39
2023/04/16 06:30:52;;;;;;;3.47;2.72;;;;;;;;;;4964031;28;20042;-39
2023/04/16 06:33:18;;;;;;;2.63;2.15;;;;;;;;;;4967922;28;20035;-40
2023/04/16 06:35:43;;;;;;;3.55;2.20;;;;;;;;;;4964383;28;20109;-39
2023/04/16 06:38:08;;;;;;;2.03;1.90;;;;;;;;;;4967992;28;20041;-39
2023/04/16 06:40:36;;;;;;;3.15;2.22;;;;;;;;;;4966971;28;20035;-39
2023/04/16 06:43:01;;;;;;;4.35;2.65;;;;;;;;;;4963703;28;20414;-39
2023/04/16 06:45:27;;;;;;;2.92;2.38;;;;;;;;;;4965320;28;20035;-39
2023/04/16 06:47:52;;;;;;;2.25;2.05;;;;;;;;;;4965848;28;20041;-39
2023/04/16 06:50:18;;;;;;;2.90;1.90;;;;;;;;;;4966652;28;20023;-40
2023/04/16 06:52:43;;;;;;;4.00;1.90;;;;;;;;;;4964119;28;20038;-40
2023/04/16 06:55:09;;;;;;;2.60;2.10;;;;;;;;;;4957305;28;20030;-38
2023/04/16 06:57:35;;;;;;;2.80;2.20;;;;;;;;;;4966991;28;20056;-39
2023/04/16 07:00:00;;;;;;;3.70;1.67;;;;;;;;;;4965458;28;20065;-40
2023/04/16 07:02:26;;;;;;;2.22;1.90;;;;;;;;;;4962530;28;20039;-40
2023/04/16 07:04:51;;;;;;;2.53;1.95;;;;;;;;;;4966482;28;20427;-38
2023/04/16 07:07:17;;;;;;;3.65;1.90;;;;;;;;;;4961636;28;20046;-39
2023/04/16 07:09:42;;;;;;;2.03;1.85;;;;;;;;;;4968039;28;20033;-39
2023/04/16 07:12:08;;;;;;;2.28;1.77;;;;;;;;;;4966811;28;20189;-39
2023/04/16 07:14:33;;;;;;;2.40;1.70;;;;;;;;;;4963424;28;20989;-40
2023/04/16 07:16:59;;;;;;;2.53;1.88;;;;;;;;;;4963750;28;20480;-40
2023/04/16 07:19:24;;;;;;;3.35;2.05;;;;;;;;;;4966570;28;20780;-40
2023/04/16 07:21:50;;;;;;;1.80;1.70;;;;;;;;;;4952712;28;20039;-39
2023/04/16 07:24:16;;;;;;;2.65;1.60;;;;;;;;;;4947285;28;20035;-39
2023/04/16 07:26:41;;;;;;;3.58;1.90;;;;;;;;;;4959903;28;20046;-39
2023/04/16 07:29:06;;;;;;;2.72;1.60;;;;;;;;;;4965376;28;20034;-39
2023/04/16 07:31:32;;;;;;;1.58;1.48;;;;;;;;;;4966075;28;20035;-40
2023/04/16 07:33:57;;;;;;;1.50;1.40;;;;;;;;;;4961590;28;20023;-40
2023/04/16 07:36:23;;;;;;;4.32;1.98;;;;;;;;;;4966262;28;20061;-42
2023/04/16 07:38:48;;;;;;;1.83;1.65;;;;;;;;;;4961584;28;20069;-40
2023/04/16 07:41:14;;;;;;;3.08;1.70;;;;;;;;;;4964992;28;20070;-39
2023/04/16 07:43:39;;;;;;;5.57;1.88;;;;;;;;;;4960736;28;20062;-40
2023/04/16 07:46:05;;;;;;;2.85;1.60;;;;;;;;;;4966682;28;20042;-39
2023/04/16 07:48:30;;;;;;;1.90;1.80;;;;;;;;;;4965811;28;20538;-39
2023/04/16 07:50:56;;;;;;;1.98;1.70;;;;;;;;;;4963896;28;20050;-39
2023/04/16 07:53:21;;;;;;;5.80;1.70;;;;;;;;;;4962971;28;20098;-39
2023/04/16 07:55:47;;;;;;;2.28;1.58;;;;;;;;;;4966174;28;20046;-40
2023/04/16 07:58:12;;;;;;;7.72;1.88;;;;;;;;;;4964369;28;20078;-40
2023/04/16 08:00:38;;;;;;;12.77;8.27;;;;;;;;;;4966604;28;20042;-39
2023/04/16 08:03:04;;;;;;;1.98;1.55;;;;;;;;;;4963882;28;20023;-40
2023/04/16 08:05:29;;;;;;;1.92;1.60;;;;;;;;;;4963339;28;20499;-39
2023/04/16 08:07:54;;;;;;;4.15;1.70;;;;;;;;;;4965066;28;20027;-39
2023/04/16 08:10:20;;;;;;;3.80;1.70;;;;;;;;;;4962573;28;20039;-40
2023/04/16 08:12:45;;;;;;;2.60;1.50;;;;;;;;;;4965299;28;20439;-43
2023/04/16 08:15:11;;;;;;;4.82;1.65;;;;;;;;;;4963401;28;20019;-40
2023/04/16 08:17:37;;;;;;;3.97;1.60;;;;;;;;;;4966486;28;20412;-44
2023/04/16 08:20:03;;;;;;;2.17;1.40;;;;;;;;;;4969345;28;20019;-44
2023/04/16 08:22:29;;;;;;;2.03;1.38;;;;;;;;;;4970807;28;20118;-42
2023/04/16 08:24:54;;;;;;;2.35;1.50;;;;;;;;;;4970847;28;20121;-43
2023/04/16 08:27:20;;;;;;;4.10;1.70;;;;;;;;;;4969426;28;20053;-47
2023/04/16 08:29:46;;;;;;;2.70;1.40;;;;;;;;;;4965487;28;20077;-43
2023/04/16 08:32:11;;;;;;;2.53;1.55;;;;;;;;;;4962798;28;20571;-42
2023/04/16 08:34:37;;;;;;;5.50;1.95;;;;;;;;;;4979638;28;20030;-41
2023/04/16 08:37:02;;;;;;;6.28;1.83;;;;;;;;;;4969586;28;20046;-45
2023/04/16 08:39:28;;;;;;;2.25;1.52;;;;;;;;;;4970029;28;20073;-44
2023/04/16 08:41:54;;;;;;;3.60;1.60;;;;;;;;;;4969869;28;20448;-43
2023/04/16 08:44:29;;;;;;;3.78;1.77;;;;;;;;;;4964267;28;20035;-41
2023/04/16 08:46:56;;;;;;;2.05;1.60;;;;;;;;;;4968508;28;20051;-43
2023/04/16 08:49:23;;;;;;;3.40;1.55;;;;;;;;;;4963205;28;20027;-47
2023/04/16 08:51:51;;;;;;;4.57;2.13;;;;;;;;;;4966254;28;20035;-42
2023/04/16 08:54:30;;;;;;;2.58;2.10;;;;;;;;;;4967571;28;20082;-46
2023/04/16 08:56:58;;;;;;;3.10;1.85;;;;;;;;;;4965847;28;20062;-44
2023/04/16 08:59:24;;;;;;;1.92;1.50;;;;;;;;;;4965540;28;20436;-45
2023/04/16 09:01:51;;;;;;;6.50;1.75;;;;;;;;;;4969761;28;20038;-43
2023/04/16 09:04:18;;;;;;;3.88;1.55;;;;;;;;;;4964222;28;20023;-43
2023/04/16 09:06:44;;;;;;;2.55;1.48;;;;;;;;;;4966849;28;20040;-44
2023/04/16 09:09:11;;;;;;;4.80;1.60;;;;;;;;;;4967625;28;20077;-43
2023/04/16 09:11:38;;;;;;;3.10;1.50;;;;;;;;;;4966032;28;21254;-46
2023/04/16 09:14:03;;;;;;;3.20;1.50;;;;;;;;;;4968695;28;20034;-44
2023/04/16 09:16:32;;;;;;;1.63;1.50;;;;;;;;;;4964247;28;20496;-47
2023/04/16 09:18:58;;;;;;;3.03;1.50;;;;;;;;;;4967152;28;20089;-40
2023/04/16 09:21:24;;;;;;;2.42;1.55;;;;;;;;;;4965085;28;20027;-42
2023/04/16 09:23:52;;;;;;;2.67;1.50;;;;;;;;;;4964459;28;20034;-45
2023/04/16 09:26:18;;;;;;;2.15;1.55;;;;;;;;;;4951221;28;20134;-43
2023/04/16 09:28:48;;;;;;;1.70;1.35;;;;;;;;;;4945837;28;20484;-43
2023/04/16 09:31:15;;;;;;;1.65;1.30;;;;;;;;;;4959827;28;20043;-40
2023/04/16 09:33:42;;;;;;;2.75;1.38;;;;;;;;;;4966504;28;20031;-47
2023/04/16 09:36:08;;;;;;;5.65;1.20;;;;;;;;;;4970212;28;20381;-42
2023/04/16 09:38:51;;;;;;;3.42;1.40;;;;;;;;;;4961809;28;20019;-44
2023/04/16 09:41:17;;;;;;;1.55;1.38;;;;;;;;;;4956606;28;20106;-43
2023/04/16 09:43:56;;;;;;;2.65;1.30;;;;;;;;;;4947816;28;20023;-42
2023/04/16 09:46:29;;;;;;;2.33;1.20;;;;;;;;;;4956905;28;20411;-47
2023/04/16 09:48:54;;;;;;;1.33;1.23;;;;;;;;;;4962986;28;20097;-47
2023/04/16 09:51:20;;;;;;;3.53;1.95;;;;;;;;;;4967172;28;20407;-44
2023/04/16 09:53:45;;;;;;;4.95;1.30;;;;;;;;;;4968611;28;20434;-49
2023/04/16 09:56:11;;;;;;;2.38;1.23;;;;;;;;;;4965737;28;20062;-40
2023/04/16 09:58:37;;;;;;;1.67;1.17;;;;;;;;;;4963292;28;20031;-40
2023/04/16 10:01:09;;;;;;;4.32;1.50;;;;;;;;;;4965112;28;20512;-40
2023/04/16 10:03:36;;;;;;;1.15;1.13;;;;;;;;;;4965884;28;20032;-40
2023/04/16 10:06:13;;;;;;;2.05;1.27;;;;;;;;;;4965639;28;20078;-40
2023/04/16 10:08:45;;;;;;;3.45;1.30;;;;;;;;;;4962405;28;20597;-40
2023/04/16 10:11:11;;;;;;;;;;;;;;;;;;4965947;28;20101;-42
2023/04/16 10:13:36;;;;;;;2.63;1.65;;;;;;;;;;4968135;28;20363;-39
2023/04/16 10:16:02;;;;;;;1.50;1.25;;;;;;;;;;4968609;28;20069;-40
2023/04/16 10:18:28;;;;;;;4.25;1.30;;;;;;;;;;4963827;28;20035;-41
2023/04/16 10:20:54;;;;;;;6.53;1.42;;;;;;;;;;4959545;28;20035;-40
2023/04/16 10:23:21;;;;;;;1.42;1.33;;;;;;;;;;4961886;28;20141;-40
2023/04/16 10:25:51;;;;;;;1.70;1.10;;;;;;;;;;4964599;28;20114;-40
2023/04/16 10:28:16;;;;;;;1.75;1.02;;;;;;;;;;4967470;28;20435;-40
2023/04/16 10:30:51;;;;;;;3.28;1.20;;;;;;;;;;4967093;28;20062;-40
2023/04/16 10:33:23;;;;;;;2.65;1.40;;;;;;;;;;4965793;28;20388;-40
2023/04/16 10:36:05;;;;;;;2.08;1.17;;;;;;;;;;4967580;28;20714;-39
2023/04/16 10:38:31;;;;;;;4.65;1.60;;;;;;;;;;4962036;28;20565;-39
2023/04/16 10:41:02;;;;;;;3.50;1.60;;;;;;;;;;4965423;28;20138;-40
2023/04/16 10:43:29;;;;;;;1.95;1.15;;;;;;;;;;4966370;28;20423;-40
2023/04/16 10:45:54;;;;;;;1.83;1.23;;;;;;;;;;4964068;28;20500;-40
2023/04/16 10:48:20;;;;;;;1.55;1.45;;;;;;;;;;4960530;28;20101;-40
2023/04/16 10:50:56;;;;;;;10.82;2.20;;;;;;;;;;4964048;28;20515;-40
2023/04/16 10:53:24;;;;;;;2.90;1.40;;;;;;;;;;4965647;28;20066;-44
2023/04/16 10:56:03;;;;;;;1.55;1.17;;;;;;;;;;4956586;28;20139;-44
2023/04/16 10:58:34;;;;;;;3.65;1.42;;;;;;;;;;4951159;28;20034;-47
2023/04/16 11:01:05;;;;;;;2.03;0.98;;;;;;;;;;4952224;28;20129;-40
2023/04/16 11:03:31;;;;;;;8.35;1.20;;;;;;;;;;4964412;28;20575;-44
2023/04/16 11:06:30;;;;;;;3.38;1.13;;;;;;;;;;4962585;28;20055;-40
2023/04/16 11:08:56;;;;;;;3.33;1.10;;;;;;;;;;4964339;28;20209;-42
2023/04/16 11:11:22;;;;;;;5.22;1.20;;;;;;;;;;4966633;28;20035;-43
2023/04/16 11:13:47;;;;;;;3.25;0.90;;;;;;;;;;4964805;28;20444;-42
2023/04/16 11:16:15;;;;;;;1.52;1.20;;;;;;;;;;4962874;28;20089;-41
2023/04/16 11:18:40;;;;;;;1.63;0.90;;;;;;;;;;4965191;28;20074;-41
2023/04/16 11:21:11;;;;;;;1.10;1.00;;;;;;;;;;4965345;28;20066;-42
2023/04/16 11:23:50;;;;;;;2.45;1.13;;;;;;;;;;4963826;28;20427;-40
2023/04/16 11:26:34;;;;;;;4.15;1.27;;;;;;;;;;4947474;28;20405;-40
2023/04/16 11:28:59;;;;;;;1.63;0.90;;;;;;;;;;4964941;28;20113;-43
2023/04/16 11:31:26;;;;;;;4.93;1.08;;;;;;;;;;4952213;28;20063;-40
2023/04/16 11:33:51;;;;;;;1.95;1.10;;;;;;;;;;4946650;28;20524;-41
2023/04/16 11:36:17;;;;;;;1.35;0.90;;;;;;;;;;4955904;28;20054;-41
2023/04/16 11:38:42;;;;;;;1.02;1.02;;;;;;;;;;4964303;28;20097;-40
2023/04/16 11:41:09;;;;;;;4.32;1.05;;;;;;;;;;4961047;28;20410;-42
2023/04/16 11:43:35;;;;;;;1.08;0.80;;;;;;;;;;4964291;28;20035;-40
2023/04/16 11:46:05;;;;;;;1.02;0.90;;;;;;;;;;4967276;28;20053;-40
2023/04/16 11:48:47;;;;;;;1.38;0.98;;;;;;;;;;4966740;28;20023;-41
2023/04/16 11:51:13;;;;;;;;;;;;;;;;;;4962191;28;20403;-40
2023/04/16 11:53:46;;;;;;;1.50;1.00;;;;;;;;;;4964099;28;19910;-40
2023/04/16 11:56:11;;;;;;;3.22;1.30;;;;;;;;;;4964311;28;20049;-40
2023/04/16 11:58:36;;;;;;;1.55;1.20;;;;;;;;;;4969185;28;20026;-41
2023/04/16 12:01:02;;;;;;;3.67;1.17;;;;;;;;;;4966576;28;20046;-44
2023/04/16 12:03:38;;;;;;;4.57;0.90;;;;;;;;;;4967407;28;20031;-44
2023/04/16 12:06:08;;;;;;;6.78;1.10;;;;;;;;;;4967363;28;20499;-42
2023/04/16 12:08:33;;;;;;;3.28;1.17;;;;;;;;;;4970869;28;20035;-40
2023/04/16 12:10:58;;;;;;;4.10;1.45;;;;;;;;;;4960334;28;20039;-40
2023/04/16 12:13:24;;;;;;;1.77;1.25;;;;;;;;;;4951798;28;20055;-40
2023/04/16 12:15:53;;;;;;;3.15;1.40;;;;;;;;;;4956944;28;20038;-45
2023/04/16 12:18:21;;;;;;;5.45;1.33;;;;;;;;;;4969655;28;20045;-43
2023/04/16 12:20:48;;;;;;;1.65;1.30;;;;;;;;;;4969228;28;20042;-41
2023/04/16 12:23:31;;;;;;;9.80;1.10;;;;;;;;;;4968424;28;20027;-42
2023/04/16 12:26:01;;;;;;;1.83;1.42;;;;;;;;;;4967200;28;20050;-40
2023/04/16 12:28:35;;;;;;;1.92;1.08;;;;;;;;;;4967300;28;20058;-44
2023/04/16 12:31:01;;;;;;;0.95;0.88;;;;;;;;;;4970425;28;20626;-41
2023/04/16 12:33:27;;;;;;;1.67;1.10;;;;;;;;;;4970938;28;20058;-41
2023/04/16 12:35:52;;;;;;;1.85;1.10;;;;;;;;;;4965710;28;20106;-42
2023/04/16 12:38:18;;;;;;;3.25;1.00;;;;;;;;;;4971275;28;20178;-40
2023/04/16 12:40:44;;;;;;;1.40;0.88;;;;;;;;;;4967865;28;20106;-40
2023/04/16 12:43:10;;;;;;;1.73;1.17;;;;;;;;;;4969703;28;20509;-42
2023/04/16 12:45:35;;;;;;;4.72;0.90;;;;;;;;;;4968966;28;20118;-40
2023/04/16 12:48:01;;;;;;;4.97;2.70;;;;;;;;;;4969494;28;20035;-43
2023/04/16 12:50:30;;;;;;;4.55;0.93;;;;;;;;;;4967984;28;20042;-41
2023/04/16 12:52:56;;;;;;;8.15;1.75;;;;;;;;;;4964687;28;20035;-40
2023/04/16 12:55:21;;;;;;;2.33;0.63;;;;;;;;;;4966824;28;20035;-47
2023/04/16 12:57:51;;;;;;;4.40;1.02;;;;;;;;;;4963644;28;20101;-41
2023/04/16 13:00:17;;;;;;;1.50;1.17;;;;;;;;;;4965774;28;20175;-39
2023/04/16 13:02:42;;;;;;;0.70;0.70;;;;;;;;;;4947679;29;20106;-40
2023/04/16 13:05:08;;;;;;;1.58;0.95;;;;;;;;;;4944129;28;20027;-40
2023/04/16 13:07:34;;;;;;;3.05;0.80;;;;;;;;;;4965245;28;20125;-40
2023/04/16 13:09:59;;;;;;;1.48;0.73;;;;;;;;;;4966031;28;20057;-42
2023/04/16 13:12:26;;;;;;;5.10;1.35;;;;;;;;;;4965461;28;20094;-43
2023/04/16 13:14:51;;;;;;;5.72;1.02;;;;;;;;;;4969381;28;20050;-40
2023/04/16 13:17:16;;;;;;;1.83;1.20;;;;;;;;;;4964910;28;20053;-40
2023/04/16 13:19:42;;;;;;;4.25;0.75;;;;;;;;;;4964217;28;20542;-40
2023/04/16 13:22:08;;;;;;;7.18;1.30;;;;;;;;;;4966260;28;20409;-43
2023/04/16 13:24:33;;;;;;;6.65;0.93;;;;;;;;;;4964468;28;20022;-41
2023/04/16 13:26:59;;;;;;;1.33;0.88;;;;;;;;;;4966297;28;20526;-42
2023/04/16 13:29:24;;;;;;;2.05;0.90;;;;;;;;;;4963170;28;20109;-43
2023/04/16 13:31:50;;;;;;;4.82;0.88;;;;;;;;;;4966844;28;20097;-40
2023/04/16 13:34:15;;;;;;;0.95;0.90;;;;;;;;;;4969182;28;20034;-40
2023/04/16 13:36:40;;;;;;;1.52;0.75;;;;;;;;;;4965283;28;20448;-40
2023/04/16 13:39:10;;;;;;;1.50;0.95;;;;;;;;;;4967555;28;20031;-40
2023/04/16 13:41:38;;;;;;;2.17;1.02;;;;;;;;;;4964587;28;20054;-41
2023/04/16 13:44:04;;;;;;;2.33;0.70;;;;;;;;;;4965233;28;20448;-41
2023/04/16 13:46:30;;;;;;;4.60;0.90;;;;;;;;;;4968073;28;20075;-40
2023/04/16 13:48:55;;;;;;;0.65;0.60;;;;;;;;;;4968708;28;20496;-40
2023/04/16 13:51:21;;;;;;;4.18;0.80;;;;;;;;;;4967159;28;20035;-46
2023/04/16 13:53:46;;;;;;;2.75;1.40;;;;;;;;;;4964264;28;20027;-44
2023/04/16 13:56:12;;;;;;;0.68;0.65;;;;;;;;;;4968757;28;20503;-48
2023/04/16 13:58:37;;;;;;;1.65;0.75;;;;;;;;;;4968231;28;20031;-44
2023/04/16 14:01:03;;;;;;;1.30;0.95;;;;;;;;;;4968468;28;20101;-46
2023/04/16 14:03:28;;;;;;;0.80;0.80;;;;;;;;;;4967445;28;20038;-46
2023/04/16 14:05:53;;;;;;;0.98;0.68;;;;;;;;;;4966905;28;20046;-42
2023/04/16 14:08:20;;;;;;;1.17;0.80;;;;;;;;;;4964798;28;20069;-45
2023/04/16 14:10:48;;;;;;;3.75;1.00;;;;;;;;;;4962776;28;20065;-46
2023/04/16 14:13:14;;;;;;;0.70;0.70;;;;;;;;;;4966930;28;20027;-43
2023/04/16 14:15:39;;;;;;;1.65;0.80;;;;;;;;;;4964307;28;20404;-44
2023/04/16 14:18:04;;;;;;;5.72;0.85;;;;;;;;;;4965952;28;20105;-41
2023/04/16 14:20:30;;;;;;;4.25;1.05;;;;;;;;;;4963489;28;20041;-41
2023/04/16 14:22:55;;;;;;;4.28;1.00;;;;;;;;;;4966310;28;20035;-46
2023/04/16 14:25:21;;;;;;;4.15;1.05;;;;;;;;;;4964236;28;20023;-44
2023/04/16 14:27:46;;;;;;;6.13;0.93;;;;;;;;;;4969249;28;20459;-49
2023/04/16 14:30:12;;;;;;;2.75;0.70;;;;;;;;;;4964078;28;20034;-46
2023/04/16 14:32:37;;;;;;;0.63;0.63;;;;;;;;;;4965216;28;20447;-44
2023/04/16 14:35:03;;;;;;;3.22;0.98;;;;;;;;;;4967316;28;20030;-47
2023/04/16 14:37:29;;;;;;;1.20;1.10;;;;;;;;;;4963115;28;20047;-47
2023/04/16 14:39:55;;;;;;;6.22;0.90;;;;;;;;;;4967679;28;20052;-47